createdAt,value
2023-02-27T00:00:20.929Z,3.17
2023-02-27T00:05:43.502Z,4.60
2023-02-27T00:11:05.724Z,3.43
2023-02-27T00:16:28.037Z,4.20
2023-02-27T00:21:50.204Z,2.80
2023-02-27T00:27:12.470Z,4.30
2023-02-27T00:32:36.849Z,8.17
2023-02-27T00:37:59.225Z,5.80
2023-02-27T00:43:21.956Z,2.40
2023-02-27T00:48:45.321Z,2.37
2023-02-27T00:54:09.095Z,3.17
2023-02-27T00:59:31.579Z,4.77
2023-02-27T01:04:53.712Z,3.90
2023-02-27T01:10:16.558Z,2.73
2023-02-27T01:15:39.182Z,5.00
2023-02-27T01:21:01.815Z,2.80
2023-02-27T01:26:25.048Z,3.63
2023-02-27T01:31:49.222Z,2.70
2023-02-27T01:37:11.812Z,5.03
2023-02-27T01:42:34.372Z,2.83
2023-02-27T01:48:05.120Z,2.63
2023-02-27T01:53:32.813Z,3.83
2023-02-27T01:59:00.695Z,2.50
2023-02-27T02:04:33.838Z,4.17
2023-02-27T02:09:59.307Z,4.07
2023-02-27T02:15:33.530Z,3.67
2023-02-27T02:21:34.557Z,6.80
2023-02-27T02:27:12.082Z,3.60
2023-02-27T02:33:12.732Z,3.20
2023-02-27T02:38:50.998Z,5.57
2023-02-27T02:44:20.162Z,2.73
2023-02-27T02:50:01.065Z,7.40
2023-02-27T02:55:35.410Z,3.37
2023-02-27T03:01:12.616Z,3.00
2023-02-27T03:06:46.023Z,6.20
2023-02-27T03:12:14.211Z,7.00
2023-02-27T03:17:43.785Z,3.07
2023-02-27T03:23:16.881Z,3.53
2023-02-27T03:28:59.680Z,3.53
2023-02-27T03:34:29.782Z,7.33
2023-02-27T03:40:21.896Z,9.03
2023-02-27T03:46:16.227Z,5.90
2023-02-27T03:51:38.753Z,4.60
2023-02-27T03:57:03.984Z,3.03
2023-02-27T04:02:28.300Z,11.43
2023-02-27T04:08:13.473Z,5.20
2023-02-27T04:13:58.697Z,4.90
2023-02-27T04:19:42.356Z,3.63
2023-02-27T04:25:30.900Z,4.30
2023-02-27T04:31:02.723Z,8.37
2023-02-27T04:36:33.448Z,7.70
2023-02-27T04:42:02.249Z,4.07
2023-02-27T04:47:28.183Z,5.23
2023-02-27T04:52:57.955Z,2.93
2023-02-27T04:58:25.620Z,7.07
2023-02-27T05:03:52.576Z,3.17
2023-02-27T05:09:22.615Z,4.23
2023-02-27T05:14:58.074Z,4.17
2023-02-27T05:20:25.112Z,3.10
2023-02-27T05:26:05.851Z,2.73
2023-02-27T05:31:28.240Z,8.47
2023-02-27T05:37:01.694Z,5.00
2023-02-27T05:42:28.810Z,2.60
2023-02-27T05:48:28.852Z,3.67
2023-02-27T05:53:58.215Z,4.93
2023-02-27T05:59:59.155Z,3.73
2023-02-27T06:05:21.721Z,6.80
2023-02-27T06:10:44.278Z,3.73
2023-02-27T06:16:11.242Z,4.63
2023-02-27T06:21:33.777Z,5.87
2023-02-27T06:26:56.276Z,4.57
2023-02-27T06:32:19.061Z,11.90
2023-02-27T06:37:41.085Z,3.47
2023-02-27T06:43:03.495Z,3.27
2023-02-27T06:48:25.864Z,3.10
2023-02-27T06:53:48.219Z,3.53
2023-02-27T06:59:10.538Z,3.90
2023-02-27T07:04:32.761Z,4.17
2023-02-27T07:09:54.987Z,4.20
2023-02-27T07:15:17.765Z,5.73
2023-02-27T07:20:40.422Z,6.50
2023-02-27T07:26:02.568Z,4.43
2023-02-27T07:31:25.878Z,6.43
2023-02-27T07:36:49.050Z,4.87
2023-02-27T07:42:12.216Z,6.30
2023-02-27T07:47:35.589Z,6.77
2023-02-27T07:52:57.827Z,5.87
2023-02-27T07:58:20.216Z,5.23
2023-02-27T08:03:42.680Z,4.60
2023-02-27T08:09:05.751Z,3.73
2023-02-27T08:14:28.587Z,5.40
2023-02-27T08:19:51.053Z,4.27
2023-02-27T08:25:13.340Z,5.03
2023-02-27T08:30:35.889Z,6.07
2023-02-27T08:35:58.664Z,5.27
2023-02-27T08:41:22.622Z,7.90
2023-02-27T08:46:45.324Z,5.53
2023-02-27T08:52:09.955Z,6.13
2023-02-27T08:57:32.426Z,4.73
2023-02-27T09:02:55.420Z,5.63
2023-02-27T09:08:17.719Z,7.53
2023-02-27T09:13:40.305Z,5.93
2023-02-27T09:19:02.579Z,10.17
2023-02-27T09:24:24.931Z,6.23
2023-02-27T09:29:47.248Z,6.03
2023-02-27T09:35:10.203Z,5.30
2023-02-27T09:40:39.638Z,3.93
2023-02-27T09:46:03.374Z,3.70
2023-02-27T09:51:28.197Z,2.23
2023-02-27T09:57:03.993Z,3.17
2023-02-27T10:02:32.015Z,1.33
2023-02-27T10:08:05.803Z,5.03
2023-02-27T10:13:57.557Z,2.00
2023-02-27T10:19:39.778Z,2.93
2023-02-27T10:25:31.251Z,2.27
2023-02-27T10:30:58.722Z,1.97
2023-02-27T10:36:33.103Z,0.80
2023-02-27T10:42:03.643Z,9.47
2023-02-27T10:47:27.143Z,5.17
2023-02-27T10:52:55.019Z,0.80
2023-02-27T10:58:20.759Z,1.13
2023-02-27T11:03:44.583Z,1.90
2023-02-27T11:09:21.932Z,1.83
2023-02-27T11:14:59.178Z,1.97
2023-02-27T11:20:30.387Z,0.63
2023-02-27T11:26:10.934Z,1.87
2023-02-27T11:31:36.532Z,1.40
2023-02-27T11:37:24.099Z,0.87
2023-02-27T11:42:56.338Z,0.60
2023-02-27T11:48:23.456Z,0.73
2023-02-27T11:53:56.009Z,0.70
2023-02-27T11:59:27.813Z,4.83
2023-02-27T12:05:04.530Z,0.97
2023-02-27T12:10:30.406Z,0.60
2023-02-27T12:16:06.066Z,1.73
2023-02-27T12:21:33.342Z,0.50
2023-02-27T12:27:10.556Z,1.13
2023-02-27T12:32:57.744Z,0.60
2023-02-27T12:38:21.573Z,0.80
2023-02-27T12:44:22.333Z,1.33
2023-02-27T12:50:02.692Z,1.93
2023-02-27T12:55:41.459Z,0.80
2023-02-27T13:01:27.120Z,0.80
2023-02-27T13:07:08.588Z,0.60
2023-02-27T13:12:37.460Z,0.80
2023-02-27T13:18:33.917Z,1.00
2023-02-27T13:24:08.687Z,0.57
2023-02-27T13:29:42.219Z,0.70
2023-02-27T13:35:21.613Z,2.20
2023-02-27T13:40:44.069Z,1.43
2023-02-27T13:46:26.149Z,1.70
2023-02-27T13:51:49.746Z,2.37
2023-02-27T13:57:21.569Z,0.70
2023-02-27T14:03:06.268Z,0.63
2023-02-27T14:08:35.831Z,0.90
2023-02-27T14:13:59.846Z,0.60
2023-02-27T14:19:27.245Z,0.70
2023-02-27T14:25:05.296Z,1.03
2023-02-27T14:30:33.406Z,1.40
2023-02-27T14:36:04.296Z,1.13
2023-02-27T14:41:49.616Z,0.97
2023-02-27T14:47:18.011Z,0.97
2023-02-27T14:52:43.979Z,1.33
2023-02-27T14:58:19.192Z,0.77
2023-02-27T15:03:50.155Z,3.03
2023-02-27T15:09:23.976Z,5.73
2023-02-27T15:14:51.397Z,1.17
2023-02-27T15:20:34.820Z,1.60
2023-02-27T15:25:59.430Z,2.60
2023-02-27T15:31:27.236Z,1.77
2023-02-27T15:36:55.745Z,1.17
2023-02-27T15:42:22.632Z,2.07
2023-02-27T15:47:44.892Z,2.03
2023-02-27T15:53:07.313Z,1.30
2023-02-27T15:58:33.462Z,2.10
2023-02-27T16:04:02.317Z,2.40
2023-02-27T16:09:31.830Z,10.43
2023-02-27T16:15:24.347Z,4.80
2023-02-27T16:20:55.735Z,3.23
2023-02-27T16:26:33.732Z,6.83
2023-02-27T16:31:57.833Z,4.33
2023-02-27T16:37:23.493Z,5.33
2023-02-27T16:42:46.617Z,5.83
2023-02-27T16:48:10.085Z,5.03
2023-02-27T16:53:32.449Z,5.53
2023-02-27T16:58:55.432Z,17.77
2023-02-27T17:04:25.609Z,42.17
2023-02-27T17:09:48.620Z,21.00
2023-02-27T17:15:11.307Z,7.37
2023-02-27T17:20:34.429Z,9.27
2023-02-27T17:25:57.019Z,8.10
2023-02-27T17:31:23.032Z,12.70
2023-02-27T17:36:45.660Z,10.07
2023-02-27T17:42:07.911Z,16.10
2023-02-27T17:47:30.248Z,13.73
2023-02-27T17:52:52.643Z,16.00
2023-02-27T17:58:16.975Z,17.93
2023-02-27T18:03:40.398Z,8.83
2023-02-27T18:09:03.675Z,10.57
2023-02-27T18:14:26.386Z,10.03
2023-02-27T18:19:48.665Z,10.73
2023-02-27T18:25:11.385Z,8.90
2023-02-27T18:30:38.047Z,11.07
2023-02-27T18:36:00.653Z,14.60
2023-02-27T18:41:23.681Z,27.33
2023-02-27T18:46:46.077Z,25.83
2023-02-27T18:52:08.721Z,20.20
2023-02-27T18:57:31.232Z,17.23
2023-02-27T19:02:53.924Z,12.33
2023-02-27T19:08:17.759Z,15.93
2023-02-27T19:13:39.938Z,12.23
2023-02-27T19:19:04.930Z,11.07
2023-02-27T19:24:27.313Z,10.87
2023-02-27T19:29:49.802Z,8.83
2023-02-27T19:35:15.356Z,8.63
2023-02-27T19:40:37.897Z,12.27
2023-02-27T19:46:00.540Z,10.13
2023-02-27T19:51:22.936Z,13.73
2023-02-27T19:56:45.112Z,11.77
2023-02-27T20:02:08.124Z,10.77
2023-02-27T20:07:32.101Z,13.43
2023-02-27T20:12:54.604Z,17.37
2023-02-27T20:18:17.002Z,19.07
2023-02-27T20:23:41.293Z,32.17
2023-02-27T20:29:07.884Z,16.37
2023-02-27T20:34:30.396Z,16.17
2023-02-27T20:39:52.928Z,14.13
2023-02-27T20:45:15.543Z,15.80
2023-02-27T20:50:38.054Z,15.53
2023-02-27T20:56:01.105Z,15.50
2023-02-27T21:01:23.794Z,17.93
2023-02-27T21:06:46.716Z,13.90
2023-02-27T21:12:09.538Z,13.43
2023-02-27T21:17:31.905Z,20.90
2023-02-27T21:22:55.890Z,21.20
2023-02-27T21:28:19.760Z,18.87
2023-02-27T21:33:42.811Z,14.97
2023-02-27T21:39:07.326Z,22.33
2023-02-27T21:44:29.884Z,17.27
2023-02-27T21:49:52.397Z,20.43
2023-02-27T21:55:16.188Z,17.07
2023-02-27T22:00:43.307Z,15.57
2023-02-27T22:06:06.118Z,14.17
2023-02-27T22:11:30.686Z,17.40
2023-02-27T22:16:53.076Z,15.37
2023-02-27T22:22:15.827Z,18.40
2023-02-27T22:27:37.958Z,15.20
2023-02-27T22:33:00.400Z,18.60
2023-02-27T22:38:22.787Z,18.73
2023-02-27T22:43:45.854Z,11.50
2023-02-27T22:49:12.889Z,13.17
2023-02-27T22:54:35.486Z,10.77
2023-02-27T22:59:58.882Z,11.70
2023-02-27T23:05:20.911Z,8.00
2023-02-27T23:10:43.455Z,7.43
2023-02-27T23:16:13.726Z,6.80
2023-02-27T23:21:36.468Z,5.17
2023-02-27T23:26:58.818Z,6.60
2023-02-27T23:32:21.483Z,4.87
2023-02-27T23:37:43.815Z,6.87
2023-02-27T23:43:06.060Z,5.00
2023-02-27T23:48:28.271Z,7.63
2023-02-27T23:53:51.139Z,6.47
2023-02-27T23:59:13.362Z,10.00
